Time;durP1;ratioP1;P1;durP2;ratioP2;P2;SDS_P1;SDS_P2;PMS_P1;PMS_P2;Temp;Humidity;BMP_temperature;BMP_pressure;BME280_temperature;BME280_humidity;BME280_pressure;Samples;Min_cycle;Max_cycle;Signal;HPM_P1;HPM_P2
2021/01/19 00:00:05;;;;;;;0.20;0.10;;;;;;;4.52;100.00;100783.47;5061728;28;20835;-49
2021/01/19 00:02:31;;;;;;;0.20;0.10;;;;;;;4.39;100.00;100786.09;5059982;28;20458;-50
2021/01/19 00:05:00;;;;;;;0.20;0.10;;;;;;;4.51;100.00;100785.22;5061666;28;20446;-49
2021/01/19 00:07:30;;;;;;;0.20;0.10;;;;;;;4.46;100.00;100779.97;5060661;28;20932;-51
2021/01/19 00:09:56;;;;;;;0.20;0.10;;;;;;;4.55;100.00;100772.97;5065983;28;20493;-49
2021/01/19 00:12:22;;;;;;;0.20;0.10;;;;;;;4.36;100.00;100780.78;5067792;28;20476;-49
2021/01/19 00:14:50;;;;;;;0.20;0.10;;;;;;;4.34;100.00;100779.03;5062691;28;20449;-50
2021/01/19 00:17:17;;;;;;;0.20;0.10;;;;;;;4.40;100.00;100779.06;5060569;28;20447;-49
2021/01/19 00:19:43;;;;;;;0.20;0.10;;;;;;;4.46;100.00;100776.44;5069827;28;20543;-49
2021/01/19 00:22:09;;;;;;;0.20;0.10;;;;;;;4.60;100.00;100776.50;5060482;28;20461;-49
2021/01/19 00:24:35;;;;;;;0.20;0.10;;;;;;;4.42;100.00;100777.31;5065084;28;20446;-51
2021/01/19 00:27:02;;;;;;;0.20;0.10;;;;;;;4.47;100.00;100770.31;5067555;28;20519;-49
2021/01/19 00:29:29;;;;;;;0.20;0.10;;;;;;;4.45;100.00;100770.31;5057530;28;20447;-49
2021/01/19 00:31:55;;;;;;;0.20;0.10;;;;;;;4.43;100.00;100763.28;5066284;28;20469;-49
2021/01/19 00:34:21;;;;;;;0.20;0.10;;;;;;;4.35;100.00;100768.50;5060329;28;20476;-49
2021/01/19 01:20:41;;;;;;;0.20;0.10;;;;;;;4.26;99.02;100702.69;5058492;28;20497;-49
2021/01/19 01:23:13;;;;;;;0.20;0.10;;;;;;;4.11;99.65;100698.25;5066384;28;20439;-49
2021/01/19 01:26:04;;;;;;;0.20;0.10;;;;;;;4.18;99.96;100700.91;5066581;28;20434;-51
2021/01/19 01:28:31;;;;;;;0.20;0.10;;;;;;;4.09;99.91;100693.84;5063979;28;20511;-50
2021/01/19 01:30:57;;;;;;;0.20;0.10;;;;;;;4.25;99.80;100685.16;5064161;28;20462;-53
2021/01/19 01:33:23;;;;;;;0.20;0.10;;;;;;;4.32;99.15;100689.56;5046387;28;20522;-50
2021/01/19 01:35:49;;;;;;;0.20;0.10;;;;;;;4.14;99.47;100693.00;5059086;28;20450;-51
2021/01/19 01:38:16;;;;;;;0.20;0.10;;;;;;;4.18;99.30;100688.63;5059050;28;20454;-50
2021/01/19 01:40:42;;;;;;;0.20;0.10;;;;;;;4.50;97.83;100696.63;5059228;28;20490;-52
2021/01/19 01:43:13;;;;;;;0.20;0.13;;;;;;;4.30;98.50;100704.47;5066146;28;20795;-50
2021/01/19 01:45:40;;;;;;;0.20;0.10;;;;;;;4.38;98.45;100691.31;5066091;28;20465;-50
2021/01/19 01:48:09;;;;;;;0.20;0.13;;;;;;;4.29;98.18;100689.56;5060082;28;20503;-50
2021/01/19 01:50:40;;;;;;;0.20;0.10;;;;;;;4.26;98.63;100686.91;5060181;28;20516;-50
2021/01/19 01:53:06;;;;;;;0.20;0.10;;;;;;;4.22;97.96;100681.63;5060816;28;20450;-51
2021/01/19 01:55:35;;;;;;;0.20;0.10;;;;;;;4.20;98.17;100660.56;5059145;28;20508;-50
2021/01/19 01:58:02;;;;;;;0.20;0.13;;;;;;;4.43;98.43;100665.91;5063749;28;20509;-50
2021/01/19 02:00:28;;;;;;;0.20;0.10;;;;;;;4.31;98.55;100661.47;5065819;28;20497;-50
2021/01/19 02:02:57;;;;;;;0.20;0.10;;;;;;;4.29;98.18;100660.59;5061256;28;20864;-50
2021/01/19 02:05:25;;;;;;;0.20;0.10;;;;;;;4.21;97.60;100657.06;5058631;28;20454;-50
2021/01/19 02:11:53;;;;;;;0.20;0.10;;;;;;;4.29;96.97;100647.44;5059234;28;20449;-51
2021/01/19 02:21:37;;;;;;;0.20;0.10;;;;;;;4.36;96.63;100622.88;5054168;28;20546;-50
2021/01/19 02:24:27;;;;;;;0.20;0.10;;;;;;;4.37;96.01;100629.03;5063100;28;20463;-50
2021/01/19 02:26:59;;;;;;;0.20;0.10;;;;;;;4.30;96.54;100625.53;5065276;28;20770;-50
2021/01/19 02:29:46;;;;;;;0.20;0.10;;;;;;;4.25;96.92;100619.38;5065359;28;20556;-51
2021/01/19 02:32:12;;;;;;;0.47;0.47;;;;;;;4.30;96.21;100620.25;5058963;28;20853;-50
2021/01/19 02:34:54;;;;;;;0.20;0.10;;;;;;;4.50;95.64;100620.28;5059139;28;20451;-50
2021/01/19 02:37:37;;;;;;;0.20;0.10;;;;;;;4.34;95.69;100608.84;5047408;28;20454;-50
2021/01/19 02:40:08;;;;;;;0.20;0.10;;;;;;;4.39;95.88;100611.53;5065114;28;20497;-50
2021/01/19 02:43:23;;;;;;;0.20;0.10;;;;;;;4.40;95.40;100615.91;5065153;28;20807;-50
2021/01/19 02:45:50;;;;;;;0.20;0.13;;;;;;;4.38;95.46;100618.50;5063604;28;20552;-50
2021/01/19 02:48:17;;;;;;;0.20;0.10;;;;;;;4.32;95.45;100613.25;5057265;28;20446;-49
2021/01/19 02:54:05;;;;;;;0.20;0.10;;;;;;;4.50;95.47;100600.97;5063312;28;20455;-50
2021/01/19 02:56:43;;;;;;;0.20;0.10;;;;;;;4.47;95.13;100613.25;5063132;28;20513;-50
2021/01/19 02:59:49;;;;;;;0.20;0.10;;;;;;;4.45;94.71;100606.25;5063633;28;20448;-51
2021/01/19 03:02:20;;;;;;;0.20;0.10;;;;;;;4.40;94.68;100606.25;5067956;28;20434;-51
2021/01/19 03:04:47;;;;;;;0.20;0.10;;;;;;;4.49;94.77;100608.00;5062992;28;20446;-50
2021/01/19 03:07:15;;;;;;;0.20;0.13;;;;;;;4.61;94.28;100597.47;5062552;28;20504;-50
2021/01/19 03:09:43;;;;;;;0.20;0.10;;;;;;;4.57;94.36;100589.59;5067862;28;20996;-50
2021/01/19 03:12:13;;;;;;;0.20;0.10;;;;;;;4.49;94.26;100575.53;5069364;28;20453;-50
2021/01/19 03:14:40;;;;;;;0.20;0.13;;;;;;;4.42;94.45;100569.41;5063983;28;20838;-51
2021/01/19 03:17:08;;;;;;;0.20;0.10;;;;;;;4.42;94.44;100567.66;5061937;28;20451;-50
2021/01/19 03:19:40;;;;;;;0.20;0.10;;;;;;;4.42;94.56;100556.25;5072627;28;20531;-50
2021/01/19 03:22:08;;;;;;;0.20;0.10;;;;;;;4.70;94.36;100555.38;5061654;28;20454;-50
2021/01/19 03:24:35;;;;;;;0.20;0.10;;;;;;;4.54;93.96;100550.13;5065164;28;20457;-50
2021/01/19 03:27:01;;;;;;;0.20;0.17;;;;;;;4.62;93.96;100549.22;5068417;28;20450;-50
2021/01/19 03:29:28;;;;;;;0.20;0.10;;;;;;;4.49;93.98;100546.59;5065513;28;20448;-52
2021/01/19 03:31:54;;;;;;;0.20;0.10;;;;;;;4.42;94.32;100551.00;5074750;28;20461;-50
2021/01/19 03:34:20;;;;;;;0.20;0.10;;;;;;;4.63;94.78;100537.81;5064630;28;20461;-51
2021/01/19 03:36:46;;;;;;;0.20;0.10;;;;;;;4.46;94.69;100542.22;5061259;28;20462;-50
2021/01/19 03:39:12;;;;;;;0.20;0.10;;;;;;;4.45;94.62;100543.09;5064912;28;20446;-50
2021/01/19 03:41:39;;;;;;;0.20;0.10;;;;;;;4.38;94.93;100541.31;5061049;28;20531;-49
2021/01/19 03:44:05;;;;;;;0.20;0.10;;;;;;;4.39;95.02;100548.38;5064946;28;20447;-50
2021/01/19 03:46:31;;;;;;;0.20;0.10;;;;;;;4.46;95.36;100539.56;5067795;28;20451;-50
2021/01/19 03:48:58;;;;;;;0.20;0.10;;;;;;;4.41;95.07;100536.06;5057841;28;20447;-50
2021/01/19 03:51:25;;;;;;;0.20;0.10;;;;;;;4.43;94.95;100534.31;5064472;28;20477;-49
2021/01/19 03:53:52;;;;;;;0.20;0.10;;;;;;;4.43;95.39;100537.81;5056359;28;20450;-50
2021/01/19 03:56:18;;;;;;;0.20;0.10;;;;;;;4.43;95.55;100542.22;5060542;28;20445;-50
2021/01/19 03:58:45;;;;;;;0.20;0.10;;;;;;;4.58;95.10;100539.59;5063335;28;20944;-50
2021/01/19 04:01:11;;;;;;;0.20;0.20;;;;;;;4.40;94.99;100535.19;5067152;28;20495;-51
2021/01/19 04:03:38;;;;;;;0.20;0.10;;;;;;;4.50;95.10;100530.78;5064714;28;20869;-50
2021/01/19 04:06:06;;;;;;;0.20;0.10;;;;;;;4.44;94.53;100526.41;5060918;28;20927;-50
2021/01/19 04:08:36;;;;;;;0.20;0.10;;;;;;;4.49;95.08;100515.00;5063624;28;20481;-50
2021/01/19 04:11:03;;;;;;;0.20;0.10;;;;;;;4.44;94.65;100515.91;5067570;28;20467;-51
2021/01/19 04:13:30;;;;;;;0.20;0.10;;;;;;;4.62;94.77;100496.56;5065834;28;20519;-49
2021/01/19 04:15:57;;;;;;;0.20;0.10;;;;;;;4.56;95.25;100501.84;5060986;28;20450;-50
2021/01/19 04:18:24;;;;;;;0.30;0.30;;;;;;;4.70;94.09;100497.44;5062658;28;20477;-50
2021/01/19 04:20:51;;;;;;;3.37;3.10;;;;;;;4.55;95.29;100501.88;5067384;28;20872;-50
2021/01/19 04:23:17;;;;;;;0.20;0.10;;;;;;;4.52;94.80;100494.81;5065825;28;20473;-51
2021/01/19 04:25:44;;;;;;;0.20;0.10;;;;;;;4.46;94.72;100486.94;5060688;28;20443;-50
2021/01/19 04:28:11;;;;;;;0.20;0.10;;;;;;;4.47;94.50;100486.06;5062096;28;20477;-52
2021/01/19 04:30:40;;;;;;;0.20;0.10;;;;;;;4.59;95.19;100478.16;5066824;28;20471;-50
2021/01/19 04:33:07;;;;;;;0.20;0.10;;;;;;;4.59;95.65;100479.91;5067269;28;20468;-50
2021/01/19 04:35:33;;;;;;;0.20;0.10;;;;;;;4.46;94.38;100476.41;5047037;28;20457;-50
2021/01/19 04:38:00;;;;;;;0.20;0.10;;;;;;;4.55;94.73;100476.41;5053980;28;20991;-50
2021/01/19 04:40:26;;;;;;;1.13;1.03;;;;;;;4.36;94.83;100465.00;5066921;28;20494;-50
2021/01/19 04:42:52;;;;;;;0.20;0.10;;;;;;;4.49;94.18;100462.38;5067562;28;20449;-50
2021/01/19 04:45:19;;;;;;;0.20;0.10;;;;;;;4.35;95.01;100451.84;5060282;28;20996;-50
2021/01/19 04:47:45;;;;;;;0.20;0.10;;;;;;;4.57;94.73;100450.97;5060122;28;20825;-50
2021/01/19 04:50:13;;;;;;;0.20;0.10;;;;;;;4.42;94.75;100443.97;5066536;28;20459;-51
2021/01/19 04:52:44;;;;;;;0.20;0.10;;;;;;;4.20;95.71;100436.97;5067040;28;20450;-52
2021/01/19 04:55:21;;;;;;;0.20;0.13;;;;;;;4.38;95.95;100430.78;5061238;28;20974;-50
2021/01/19 04:57:56;;;;;;;0.20;0.10;;;;;;;4.23;95.95;100428.19;5060113;28;20443;-50
2021/01/19 05:00:32;;;;;;;0.20;0.20;;;;;;;4.33;95.43;100415.03;5062879;28;20496;-50
2021/01/19 05:03:22;;;;;;;0.20;0.10;;;;;;;4.26;95.41;100420.31;5067016;28;20438;-50
2021/01/19 05:06:11;;;;;;;0.23;0.17;;;;;;;4.32;96.29;100409.75;5066859;28;20496;-50
2021/01/19 05:08:37;;;;;;;0.20;0.10;;;;;;;4.19;96.34;100405.41;5065092;28;20446;-50
2021/01/19 05:11:04;;;;;;;0.20;0.10;;;;;;;4.02;96.67;100394.91;5059508;28;20512;-49
2021/01/19 05:13:50;;;;;;;0.20;0.10;;;;;;;4.06;97.19;100389.63;5060305;28;20542;-49
2021/01/19 05:16:19;;;;;;;0.20;0.10;;;;;;;4.07;96.87;100394.00;5048987;28;20449;-50
2021/01/19 05:18:46;;;;;;;0.20;0.10;;;;;;;4.10;97.32;100382.59;5059995;28;20443;-49
2021/01/19 05:21:13;;;;;;;0.20;0.10;;;;;;;4.09;96.17;100388.72;5064197;28;20491;-51
2021/01/19 05:23:39;;;;;;;0.20;0.20;;;;;;;4.18;96.44;100385.22;5066130;28;20499;-50
2021/01/19 05:26:07;;;;;;;0.20;0.10;;;;;;;4.24;95.86;100382.56;5061022;28;20476;-51
2021/01/19 05:28:39;;;;;;;0.30;0.20;;;;;;;4.27;95.38;100380.84;5058935;28;20943;-50
2021/01/19 05:31:14;;;;;;;0.20;0.10;;;;;;;4.32;95.23;100365.91;5062806;28;20493;-50
2021/01/19 05:33:59;;;;;;;0.20;0.10;;;;;;;4.13;95.65;100374.72;5066054;28;20465;-51
2021/01/19 05:36:32;;;;;;;0.20;0.10;;;;;;;4.13;96.02;100361.56;5059259;28;20496;-50
2021/01/19 05:38:58;;;;;;;0.20;0.13;;;;;;;4.14;95.87;100355.44;5060970;28;20438;-50
2021/01/19 05:41:40;;;;;;;0.20;0.10;;;;;;;4.19;95.82;100344.91;5059183;28;20498;-50
2021/01/19 05:44:12;;;;;;;0.20;0.10;;;;;;;4.15;96.17;100344.03;5062296;28;20447;-50
2021/01/19 05:46:44;;;;;;;0.20;0.10;;;;;;;4.12;95.91;100338.78;5065953;28;20451;-50
2021/01/19 05:49:35;;;;;;;0.60;0.57;;;;;;;4.21;95.35;100337.88;5064406;28;20458;-50
2021/01/19 05:52:13;;;;;;;0.20;0.10;;;;;;;4.18;96.22;100336.13;5067537;28;20466;-50
2021/01/19 05:54:41;;;;;;;0.20;0.10;;;;;;;4.06;96.30;100333.50;5059283;28;20456;-50
2021/01/19 05:57:08;;;;;;;0.20;0.10;;;;;;;4.06;96.25;100338.78;5062439;28;20450;-50
2021/01/19 05:59:37;;;;;;;0.20;0.10;;;;;;;4.07;96.23;100330.00;5065621;28;20486;-50
2021/01/19 06:02:09;;;;;;;0.20;0.10;;;;;;;4.16;95.69;100330.88;5062986;28;20495;-51
2021/01/19 06:04:38;;;;;;;0.20;0.10;;;;;;;4.11;96.32;100329.09;5058803;28;20473;-50
2021/01/19 06:07:04;;;;;;;0.20;0.10;;;;;;;4.11;96.28;100334.38;5060879;28;20446;-50
2021/01/19 06:09:31;;;;;;;0.20;0.10;;;;;;;4.22;96.48;100321.19;5065368;28;20451;-50
2021/01/19 06:11:58;;;;;;;0.20;0.10;;;;;;;4.06;96.12;100328.25;5063878;28;20524;-50
2021/01/19 06:14:29;;;;;;;0.20;0.20;;;;;;;4.24;95.51;100325.56;5058714;28;20978;-52
2021/01/19 06:17:07;;;;;;;0.20;0.10;;;;;;;4.20;95.69;100320.34;5059992;28;20526;-50
2021/01/19 06:19:35;;;;;;;0.20;0.10;;;;;;;4.23;96.20;100317.69;5047312;28;20513;-50
2021/01/19 06:22:09;;;;;;;0.20;0.10;;;;;;;4.24;95.47;100312.41;5058544;28;20482;-50
2021/01/19 06:24:43;;;;;;;0.20;0.10;;;;;;;4.15;95.80;100309.84;5067602;28;20499;-50
2021/01/19 06:27:13;;;;;;;0.20;0.10;;;;;;;4.33;95.58;100307.16;5072420;28;20443;-52
2021/01/19 06:29:39;;;;;;;0.20;0.10;;;;;;;4.27;95.60;100306.31;5069510;28;20445;-50
2021/01/19 06:32:07;;;;;;;0.20;0.17;;;;;;;4.24;95.31;100293.13;5065122;28;20442;-50
2021/01/19 06:34:37;;;;;;;0.20;0.10;;;;;;;4.26;95.61;100296.66;5066467;28;20537;-50
2021/01/19 06:37:05;;;;;;;0.20;0.10;;;;;;;4.23;95.88;100288.75;5064782;28;20459;-50
2021/01/19 06:39:33;;;;;;;0.20;0.10;;;;;;;4.41;95.73;100291.34;5070825;28;20457;-50
2021/01/19 06:42:07;;;;;;;0.20;0.10;;;;;;;4.24;95.41;100287.88;5065358;28;20472;-50
2021/01/19 06:44:41;;;;;;;0.20;0.10;;;;;;;4.17;95.34;100284.41;5064944;28;20446;-50
2021/01/19 06:47:08;;;;;;;0.20;0.10;;;;;;;4.35;95.95;100280.81;5069031;28;20446;-50
2021/01/19 06:49:54;;;;;;;0.20;0.20;;;;;;;4.18;95.60;100274.75;5071948;28;20439;-50
2021/01/19 06:52:21;;;;;;;0.20;0.17;;;;;;;4.28;95.26;100276.47;5069412;28;21008;-50
2021/01/19 06:54:53;;;;;;;0.20;0.10;;;;;;;4.27;95.58;100265.09;5064741;28;20449;-50
2021/01/19 06:57:22;;;;;;;0.20;0.10;;;;;;;4.42;94.97;100261.53;5066578;28;20454;-51
2021/01/19 06:59:58;;;;;;;0.20;0.10;;;;;;;4.43;94.99;100258.88;5071517;28;20486;-50
2021/01/19 07:02:34;;;;;;;0.20;0.10;;;;;;;4.28;95.56;100261.56;5071806;28;20515;-52
2021/01/19 07:05:07;;;;;;;0.20;0.10;;;;;;;4.37;94.93;100256.25;5066582;28;20445;-50
2021/01/19 07:07:36;;;;;;;0.20;0.10;;;;;;;4.25;95.21;100256.31;5064784;28;20447;-50
2021/01/19 07:10:19;;;;;;;0.20;0.10;;;;;;;4.43;95.41;100247.47;5068866;28;20983;-50
2021/01/19 07:13:02;;;;;;;0.20;0.10;;;;;;;4.43;94.88;100250.09;5071869;28;20442;-50
2021/01/19 07:15:49;;;;;;;0.20;0.10;;;;;;;4.28;95.15;100256.31;5071460;28;20930;-51
2021/01/19 07:18:53;;;;;;;0.20;0.10;;;;;;;4.51;94.61;100247.41;5068453;28;20442;-51
2021/01/19 07:21:20;;;;;;;0.20;0.10;;;;;;;4.28;95.14;100235.25;5069599;28;20588;-50
2021/01/19 07:23:46;;;;;;;0.20;0.10;;;;;;;4.37;94.91;100240.47;5071276;28;20442;-50
2021/01/19 07:26:19;;;;;;;0.20;0.10;;;;;;;4.27;94.89;100243.16;5068404;28;20450;-55
2021/01/19 07:28:47;;;;;;;0.20;0.10;;;;;;;4.36;95.05;100235.22;5064704;28;20446;-54
2021/01/19 07:31:15;;;;;;;0.20;0.10;;;;;;;4.33;95.42;100232.59;5067276;28;20462;-54
2021/01/19 07:33:52;;;;;;;0.20;0.10;;;;;;;4.44;94.95;100226.41;5071537;28;20451;-55
2021/01/19 07:36:20;;;;;;;0.20;0.10;;;;;;;4.42;94.41;100232.56;5060944;28;20446;-54
2021/01/19 07:38:47;;;;;;;0.20;0.10;;;;;;;4.42;95.19;100224.69;5061335;28;20453;-55
2021/01/19 07:41:32;;;;;;;1.13;1.13;;;;;;;4.46;94.62;100219.38;5061178;28;20497;-56
2021/01/19 07:43:58;;;;;;;0.20;0.10;;;;;;;4.47;94.70;100221.13;5053384;28;20495;-55
2021/01/19 07:46:38;;;;;;;0.20;0.10;;;;;;;4.40;94.28;100223.81;5061638;28;20519;-55
2021/01/19 07:49:09;;;;;;;0.20;0.10;;;;;;;4.55;94.11;100212.34;5063644;28;20455;-54
2021/01/19 07:51:47;;;;;;;0.20;0.10;;;;;;;4.49;94.28;100207.97;5068146;28;20462;-54
2021/01/19 07:54:35;;;;;;;0.20;0.20;;;;;;;4.35;94.88;100205.41;5061536;28;20450;-54
2021/01/19 07:57:09;;;;;;;0.20;0.10;;;;;;;4.47;95.03;100197.44;5053939;28;20950;-54
2021/01/19 07:59:37;;;;;;;0.20;0.10;;;;;;;4.45;94.77;100198.34;5061086;28;20872;-55
2021/01/19 08:02:04;;;;;;;0.20;0.10;;;;;;;4.40;94.94;100201.00;5063222;28;20446;-54
2021/01/19 08:04:37;;;;;;;0.20;0.10;;;;;;;4.46;94.45;100190.44;5067424;28;21006;-54
2021/01/19 08:07:19;;;;;;;0.20;0.10;;;;;;;4.49;94.79;100181.63;5066624;28;20446;-54
2021/01/19 08:09:46;;;;;;;0.20;0.10;;;;;;;4.59;94.45;100187.72;5066771;28;20943;-54
2021/01/19 08:12:15;;;;;;;0.20;0.10;;;;;;;4.54;94.87;100200.06;5067587;28;20474;-54
2021/01/19 08:14:43;;;;;;;0.20;0.10;;;;;;;4.57;94.05;100190.38;5062532;28;20454;-53
2021/01/19 08:17:12;;;;;;;0.20;0.10;;;;;;;4.57;93.97;100195.66;5060522;28;20948;-53
2021/01/19 08:19:41;;;;;;;0.20;0.10;;;;;;;4.64;93.80;100191.19;5065617;28;20447;-54
2021/01/19 08:22:10;;;;;;;0.20;0.20;;;;;;;4.59;93.84;100191.25;5058811;28;20458;-54
2021/01/19 08:24:44;;;;;;;0.20;0.10;;;;;;;4.75;93.45;100185.00;5064058;28;20940;-54
2021/01/19 08:27:13;;;;;;;0.20;0.10;;;;;;;4.67;93.40;100180.69;5067209;28;20451;-54
2021/01/19 08:29:39;;;;;;;0.20;0.10;;;;;;;4.68;94.15;100177.16;5064982;28;20453;-53
2021/01/19 08:32:08;;;;;;;0.20;0.10;;;;;;;4.70;93.75;100171.00;5060391;28;20446;-54
2021/01/19 08:34:38;;;;;;;0.20;0.10;;;;;;;4.59;94.20;100158.78;5062226;28;20443;-54
2021/01/19 08:37:05;;;;;;;0.20;0.10;;;;;;;4.72;93.86;100158.69;5060146;28;20467;-54
2021/01/19 08:39:31;;;;;;;0.20;0.10;;;;;;;4.60;94.47;100158.75;5065960;28;20446;-54
2021/01/19 08:42:01;;;;;;;0.20;0.10;;;;;;;4.74;93.80;100161.31;5060015;28;20550;-54
2021/01/19 08:44:31;;;;;;;0.20;0.10;;;;;;;4.76;94.44;100154.25;5060589;28;20435;-54
2021/01/19 08:46:58;;;;;;;0.20;0.10;;;;;;;4.65;94.81;100145.56;5066954;28;20477;-55
2021/01/19 08:49:32;;;;;;;0.20;0.10;;;;;;;4.73;94.30;100149.03;5067148;28;20453;-53
2021/01/19 08:51:58;;;;;;;0.20;0.10;;;;;;;4.83;94.81;100149.84;5060905;28;20462;-55
2021/01/19 08:54:30;;;;;;;0.20;0.20;;;;;;;4.72;93.57;100142.03;5060136;28;20462;-54
2021/01/19 08:56:57;;;;;;;0.20;0.10;;;;;;;4.90;92.51;100131.34;5065201;28;20454;-55
2021/01/19 08:59:37;;;;;;;0.20;0.10;;;;;;;4.88;93.44;100133.09;5066758;28;20458;-55
2021/01/19 09:02:03;;;;;;;0.20;0.10;;;;;;;4.95;92.87;100118.16;5063320;28;20470;-55
2021/01/19 09:04:31;;;;;;;0.53;0.53;;;;;;;5.03;93.06;100121.56;5059621;28;20449;-55
2021/01/19 09:07:07;;;;;;;0.20;0.10;;;;;;;4.94;92.89;100106.75;5063061;28;20451;-55
2021/01/19 09:09:35;;;;;;;0.20;0.10;;;;;;;4.93;92.61;100107.59;5066213;28;20447;-55
2021/01/19 09:12:01;;;;;;;0.20;0.20;;;;;;;4.83;92.59;100100.69;5065666;28;20527;-55
2021/01/19 09:14:28;;;;;;;0.20;0.10;;;;;;;4.93;92.42;100104.09;5059712;28;20507;-55
2021/01/19 09:16:55;;;;;;;0.20;0.10;;;;;;;4.94;92.62;100104.09;5060639;28;20447;-54
2021/01/19 09:19:22;;;;;;;0.20;0.10;;;;;;;5.00;92.00;100092.63;5066510;28;20948;-55
2021/01/19 09:21:49;;;;;;;0.20;0.10;;;;;;;5.10;91.81;100086.41;5053625;28;20876;-55
2021/01/19 09:24:24;;;;;;;0.20;0.10;;;;;;;5.11;91.80;100085.50;5066629;28;20446;-55
2021/01/19 09:27:01;;;;;;;0.20;0.10;;;;;;;5.20;92.15;100082.75;5066358;28;20931;-55
2021/01/19 09:29:30;;;;;;;0.20;0.10;;;;;;;5.12;92.22;100081.09;5061342;28;20485;-54
2021/01/19 09:31:58;;;;;;;0.20;0.10;;;;;;;5.24;92.38;100075.72;5059627;28;20462;-55
2021/01/19 09:34:26;;;;;;;0.20;0.10;;;;;;;5.16;92.66;100064.38;5062468;28;20482;-54
2021/01/19 09:36:54;;;;;;;0.20;0.10;;;;;;;5.02;92.45;100081.19;5059125;28;20455;-55
2021/01/19 09:39:24;;;;;;;0.20;0.10;;;;;;;5.13;92.28;100070.56;5064505;28;20450;-55
2021/01/19 09:41:52;;;;;;;0.20;0.10;;;;;;;5.18;92.27;100067.88;5058923;28;20494;-55
2021/01/19 09:44:19;;;;;;;0.20;0.10;;;;;;;5.26;92.26;100066.03;5060885;28;20451;-54
2021/01/19 09:46:47;;;;;;;0.20;0.10;;;;;;;5.14;92.31;100066.16;5065060;28;20508;-54
2021/01/19 09:49:17;;;;;;;0.20;0.10;;;;;;;5.15;93.32;100052.97;5065192;28;20822;-54
2021/01/19 09:51:43;;;;;;;0.20;0.10;;;;;;;5.16;93.49;100057.34;5048440;28;20478;-54
2021/01/19 09:54:09;;;;;;;0.20;0.10;;;;;;;5.12;94.09;100052.13;5055195;28;20450;-54
2021/01/19 09:56:35;;;;;;;0.43;0.43;;;;;;;5.13;94.61;100040.72;5046474;28;20820;-55
2021/01/19 09:59:04;;;;;;;0.20;0.10;;;;;;;5.11;94.92;100024.03;5044520;28;20455;-54
2021/01/19 10:01:31;;;;;;;0.20;0.10;;;;;;;5.12;96.72;100033.69;5059488;28;20585;-55
2021/01/19 10:03:58;;;;;;;0.20;0.10;;;;;;;5.00;96.88;100019.75;5059388;28;20924;-55
2021/01/19 10:06:26;;;;;;;0.20;0.10;;;;;;;5.12;97.53;100015.25;5064743;28;20504;-55
2021/01/19 10:08:53;;;;;;;0.20;0.20;;;;;;;5.14;97.29;100011.72;5064112;28;20450;-54
2021/01/19 10:11:32;;;;;;;0.20;0.10;;;;;;;5.03;97.86;100010.94;5060903;28;20465;-55
2021/01/19 10:14:17;;;;;;;0.20;0.10;;;;;;;5.06;98.36;100010.91;5058895;28;20515;-54
2021/01/19 10:16:48;;;;;;;0.20;0.10;;;;;;;5.22;97.91;99995.81;5058224;28;20962;-55
2021/01/19 10:19:29;;;;;;;0.20;0.10;;;;;;;5.10;97.77;99995.97;5046118;28;20499;-53
2021/01/19 10:21:58;;;;;;;0.20;0.10;;;;;;;4.98;98.03;99984.66;5058357;28;20491;-55
2021/01/19 10:24:25;;;;;;;0.20;0.10;;;;;;;4.91;98.47;99988.25;5063005;28;20451;-54
2021/01/19 10:26:59;;;;;;;0.20;0.10;;;;;;;4.94;98.89;99992.63;5063973;28;20462;-55
2021/01/19 10:29:26;;;;;;;0.20;0.10;;;;;;;4.97;99.46;99979.41;5062689;28;20464;-55
2021/01/19 10:32:00;;;;;;;0.20;0.20;;;;;;;4.94;100.00;99971.56;5070565;28;20462;-55
2021/01/19 10:34:28;;;;;;;0.20;0.10;;;;;;;4.90;100.00;99954.03;5060097;28;20449;-55
2021/01/19 10:36:57;;;;;;;0.20;0.10;;;;;;;4.85;100.00;99951.47;5058155;28;20462;-55
2021/01/19 10:39:24;;;;;;;0.20;0.20;;;;;;;4.91;100.00;99953.13;5063778;28;20446;-55
2021/01/19 10:41:52;;;;;;;0.20;0.10;;;;;;;4.90;100.00;99946.13;5058220;28;20493;-55
2021/01/19 10:44:21;;;;;;;0.20;0.10;;;;;;;4.89;100.00;99947.88;5059792;28;20497;-55
2021/01/19 10:46:55;;;;;;;0.20;0.10;;;;;;;4.96;100.00;99940.81;5065329;28;20783;-55
2021/01/19 10:49:27;;;;;;;0.20;0.10;;;;;;;4.84;100.00;99941.81;5064113;28;20930;-55
2021/01/19 10:51:53;;;;;;;0.20;0.10;;;;;;;4.77;100.00;99934.84;5066950;28;20458;-55
2021/01/19 10:54:20;;;;;;;0.20;0.10;;;;;;;4.62;100.00;99925.38;5057817;28;20450;-54
2021/01/19 10:56:59;;;;;;;0.20;0.10;;;;;;;4.66;100.00;99919.19;5064552;28;20525;-55
2021/01/19 10:59:25;;;;;;;0.20;0.10;;;;;;;4.67;100.00;99917.44;5065288;28;20495;-55
2021/01/19 11:01:52;;;;;;;0.20;0.10;;;;;;;4.62;100.00;99901.69;5061016;28;20911;-55
2021/01/19 11:04:18;;;;;;;0.20;0.10;;;;;;;4.66;100.00;99895.50;5057826;28;20932;-53
2021/01/19 11:06:44;;;;;;;0.20;0.10;;;;;;;4.74;100.00;99893.66;5062606;28;20541;-55
2021/01/19 11:09:10;;;;;;;0.20;0.10;;;;;;;4.78;100.00;99886.56;5065536;28;20450;-55
2021/01/19 11:11:37;;;;;;;0.20;0.10;;;;;;;4.65;100.00;99893.72;5062742;28;20808;-53
2021/01/19 11:14:05;;;;;;;0.30;0.30;;;;;;;4.81;100.00;99899.72;5062401;28;20524;-55
2021/01/19 11:16:33;;;;;;;0.20;0.10;;;;;;;4.78;100.00;99876.03;5065973;28;20948;-55
2021/01/19 11:19:04;;;;;;;0.20;0.10;;;;;;;4.63;100.00;99878.84;5068883;28;20457;-55
2021/01/19 11:21:31;;;;;;;0.20;0.10;;;;;;;4.74;100.00;99885.75;5065642;28;20547;-55
2021/01/19 11:23:58;;;;;;;0.20;0.10;;;;;;;4.80;100.00;99873.38;5061692;28;20952;-55
2021/01/19 11:26:24;;;;;;;0.20;0.10;;;;;;;4.73;100.00;99876.09;5064276;28;20446;-55
2021/01/19 11:28:51;;;;;;;0.20;0.10;;;;;;;4.79;100.00;99863.75;5068732;28;20451;-55
2021/01/19 11:31:25;;;;;;;0.20;0.10;;;;;;;4.72;100.00;99862.97;5067137;28;20465;-55
2021/01/19 11:33:53;;;;;;;0.20;0.20;;;;;;;4.73;100.00;99865.56;5069448;28;20438;-55
2021/01/19 11:36:31;;;;;;;1.60;1.60;;;;;;;4.74;100.00;99866.44;5061753;28;20454;-54
2021/01/19 11:38:57;;;;;;;0.20;0.10;;;;;;;4.72;100.00;99870.88;5051109;28;20954;-55
2021/01/19 11:41:25;;;;;;;0.20;0.10;;;;;;;4.63;100.00;99852.53;5061461;28;20913;-55
2021/01/19 11:43:53;;;;;;;0.20;0.10;;;;;;;4.73;100.00;99854.19;5067160;28;20451;-55
2021/01/19 11:46:24;;;;;;;0.20;0.10;;;;;;;4.66;100.00;99856.03;5068745;28;20450;-55
2021/01/19 11:48:51;;;;;;;0.20;0.10;;;;;;;4.85;100.00;99845.25;5064362;28;20438;-54
2021/01/19 11:51:23;;;;;;;0.20;0.10;;;;;;;4.82;100.00;99840.91;5062963;28;20987;-55
2021/01/19 11:53:52;;;;;;;0.20;0.10;;;;;;;4.80;100.00;99833.91;5064707;28;20934;-55
2021/01/19 11:56:18;;;;;;;0.20;0.10;;;;;;;4.88;100.00;99832.06;5060940;28;20449;-55
2021/01/19 11:58:45;;;;;;;0.20;0.10;;;;;;;4.84;100.00;99836.50;5064625;28;20509;-54
2021/01/19 12:01:21;;;;;;;0.20;0.10;;;;;;;4.62;100.00;99829.72;5067991;28;20499;-54
2021/01/19 12:03:48;;;;;;;0.20;0.10;;;;;;;4.67;100.00;99823.53;5066481;28;20969;-55
2021/01/19 12:06:15;;;;;;;0.20;0.10;;;;;;;4.61;100.00;99828.00;5059413;28;20450;-54
2021/01/19 12:08:44;;;;;;;0.20;0.10;;;;;;;4.66;100.00;99834.06;5062705;28;20455;-54
2021/01/19 12:11:11;;;;;;;0.20;0.10;;;;;;;4.72;100.00;99829.63;5068082;28;20473;-54
2021/01/19 12:13:37;;;;;;;0.20;0.20;;;;;;;4.80;100.00;99826.00;5066851;28;20458;-55
2021/01/19 12:16:08;;;;;;;0.20;0.10;;;;;;;4.82;100.00;99829.50;5060641;28;20992;-55
2021/01/19 12:18:35;;;;;;;0.20;0.10;;;;;;;4.67;100.00;99827.94;5061918;28;20462;-55
2021/01/19 12:21:03;;;;;;;0.20;0.10;;;;;;;4.79;100.00;99825.13;5071937;28;20938;-55
2021/01/19 12:23:30;;;;;;;0.20;0.10;;;;;;;4.73;100.00;99826.09;5060468;28;21014;-54
2021/01/19 12:25:58;;;;;;;0.20;0.10;;;;;;;4.68;100.00;99821.78;5067453;28;20537;-55
2021/01/19 12:28:25;;;;;;;0.20;0.10;;;;;;;4.81;100.00;99820.75;5067341;28;20449;-54
2021/01/19 12:30:54;;;;;;;0.20;0.10;;;;;;;4.79;100.00;99825.13;5061965;28;20465;-55
2021/01/19 12:33:21;;;;;;;0.20;0.10;;;;;;;4.75;100.00;99820.81;5070786;28;20450;-55
2021/01/19 12:35:51;;;;;;;0.20;0.10;;;;;;;4.89;100.00;99820.63;5060545;28;20458;-55
2021/01/19 12:38:17;;;;;;;0.20;0.10;;;;;;;4.87;100.00;99823.28;5056517;28;20451;-55
2021/01/19 12:40:44;;;;;;;0.20;0.10;;;;;;;5.08;100.00;99821.25;5064804;28;20491;-55
2021/01/19 12:43:11;;;;;;;0.20;0.10;;;;;;;5.02;100.00;99811.66;5066988;28;20748;-55
2021/01/19 12:45:38;;;;;;;0.20;0.10;;;;;;;5.00;100.00;99806.44;5063453;28;20445;-55